createdAt,value
2023-01-31T00:01:29.121Z,15.23
2023-01-31T00:03:58.141Z,10.57
2023-01-31T00:06:30.523Z,8.00
2023-01-31T00:08:59.721Z,12.17
2023-01-31T00:11:30.008Z,13.80
2023-01-31T00:13:59.363Z,11.07
2023-01-31T00:16:27.566Z,13.37
2023-01-31T00:18:55.640Z,13.03
2023-01-31T00:21:25.336Z,5.70
2023-01-31T00:23:55.325Z,16.57
2023-01-31T00:26:24.783Z,13.77
2023-01-31T00:28:56.199Z,9.67
2023-01-31T00:31:25.297Z,13.83
2023-01-31T00:33:54.457Z,18.63
2023-01-31T00:36:24.050Z,12.60
2023-01-31T00:38:54.585Z,9.73
2023-01-31T00:41:24.163Z,14.27
2023-01-31T00:43:52.087Z,17.83
2023-01-31T00:46:20.632Z,9.60
2023-01-31T00:48:48.459Z,11.50
2023-01-31T00:51:16.080Z,17.97
2023-01-31T00:53:43.978Z,12.30
2023-01-31T00:56:14.832Z,16.43
2023-01-31T00:58:42.937Z,12.10
2023-01-31T01:01:13.817Z,10.13
2023-01-31T01:03:42.591Z,14.53
2023-01-31T01:06:11.045Z,11.83
2023-01-31T01:08:40.856Z,12.03
2023-01-31T01:11:11.449Z,12.80
2023-01-31T01:13:41.709Z,10.60
2023-01-31T01:16:11.644Z,14.50
2023-01-31T01:18:39.846Z,11.03
2023-01-31T01:21:09.678Z,17.13
2023-01-31T01:23:37.672Z,12.17
2023-01-31T01:26:05.631Z,12.27
2023-01-31T01:28:35.367Z,9.30
2023-01-31T01:31:07.579Z,10.77
2023-01-31T01:33:35.259Z,11.77
2023-01-31T01:36:03.454Z,7.23
2023-01-31T01:38:31.405Z,8.13
2023-01-31T01:40:58.919Z,10.97
2023-01-31T01:43:41.366Z,12.47
2023-01-31T01:46:14.740Z,11.23
2023-01-31T01:48:46.031Z,10.33
2023-01-31T01:51:15.114Z,8.67
2023-01-31T01:53:45.442Z,6.50
2023-01-31T01:56:18.718Z,9.33
2023-01-31T01:58:50.919Z,7.70
2023-01-31T02:01:20.461Z,10.67
2023-01-31T02:03:49.664Z,8.97
2023-01-31T02:06:17.410Z,13.17
2023-01-31T02:08:46.314Z,14.40
2023-01-31T02:11:21.179Z,9.13
2023-01-31T02:13:50.637Z,9.40
2023-01-31T02:16:20.140Z,14.60
2023-01-31T02:18:49.278Z,12.63
2023-01-31T02:21:41.244Z,11.13
2023-01-31T02:24:48.051Z,8.47
2023-01-31T02:27:39.820Z,10.47
2023-01-31T02:30:34.167Z,10.07
2023-01-31T02:33:11.157Z,21.37
2023-01-31T02:35:50.970Z,14.93
2023-01-31T02:38:32.732Z,16.30
2023-01-31T02:41:10.625Z,15.07
2023-01-31T02:44:12.150Z,15.47
2023-01-31T02:46:47.886Z,15.10
2023-01-31T02:49:34.665Z,11.10
2023-01-31T02:52:17.207Z,9.50
2023-01-31T02:55:11.076Z,9.97
2023-01-31T02:57:39.595Z,13.00
2023-01-31T03:00:09.642Z,12.80
2023-01-31T03:02:37.456Z,10.87
2023-01-31T03:05:06.809Z,13.87
2023-01-31T03:07:38.206Z,10.40
2023-01-31T03:10:28.528Z,15.33
2023-01-31T03:13:10.340Z,11.90
2023-01-31T03:16:05.248Z,15.83
2023-01-31T03:18:41.889Z,11.53
2023-01-31T03:21:15.220Z,10.20
2023-01-31T03:23:46.369Z,9.13
2023-01-31T03:26:13.978Z,6.30
2023-01-31T03:28:43.973Z,11.43
2023-01-31T03:31:19.974Z,8.73
2023-01-31T03:33:52.068Z,6.63
2023-01-31T03:36:29.145Z,6.93
2023-01-31T03:39:16.375Z,6.83
2023-01-31T03:41:57.688Z,11.87
2023-01-31T03:44:36.262Z,7.93
2023-01-31T03:47:09.472Z,9.13
2023-01-31T03:49:41.844Z,10.27
2023-01-31T03:52:14.996Z,9.50
2023-01-31T03:54:46.634Z,6.90
2023-01-31T03:57:18.868Z,5.63
2023-01-31T03:59:53.901Z,10.97
2023-01-31T04:02:24.119Z,4.97
2023-01-31T04:04:56.882Z,7.60
2023-01-31T04:07:26.252Z,7.60
2023-01-31T04:09:53.832Z,9.53
2023-01-31T04:12:21.831Z,5.83
2023-01-31T04:14:49.358Z,6.63
2023-01-31T04:17:16.883Z,9.57
2023-01-31T04:19:45.112Z,7.97
2023-01-31T04:22:12.831Z,8.60
2023-01-31T04:24:41.690Z,9.23
2023-01-31T04:27:09.173Z,8.33
2023-01-31T04:29:36.703Z,6.47
2023-01-31T04:32:04.580Z,6.50
2023-01-31T04:34:32.173Z,10.77
2023-01-31T04:36:59.693Z,15.53
2023-01-31T04:39:27.199Z,15.83
2023-01-31T04:41:56.029Z,10.67
2023-01-31T04:44:23.549Z,15.50
2023-01-31T04:46:51.070Z,15.77
2023-01-31T04:49:18.685Z,11.03
2023-01-31T04:51:46.210Z,9.83
2023-01-31T04:54:13.922Z,16.03
2023-01-31T04:56:41.495Z,14.23
2023-01-31T04:59:10.523Z,10.67
2023-01-31T05:01:38.271Z,9.40
2023-01-31T05:04:05.929Z,9.67
2023-01-31T05:06:33.444Z,13.13
2023-01-31T05:09:01.626Z,12.43
2023-01-31T05:11:29.227Z,10.50
2023-01-31T05:13:56.774Z,6.73
2023-01-31T05:16:25.640Z,10.00
2023-01-31T05:18:53.224Z,8.80
2023-01-31T05:21:20.737Z,7.93
2023-01-31T05:23:48.651Z,11.90
2023-01-31T05:26:16.286Z,16.17
2023-01-31T05:28:43.807Z,11.67
2023-01-31T05:31:13.494Z,12.67
2023-01-31T05:33:43.027Z,10.60
2023-01-31T05:36:10.599Z,6.47
2023-01-31T05:38:38.145Z,10.67
2023-01-31T05:41:05.893Z,11.00
2023-01-31T05:43:35.523Z,9.83
2023-01-31T05:46:04.025Z,10.53
2023-01-31T05:48:31.609Z,10.40
2023-01-31T05:51:00.840Z,5.47
2023-01-31T05:53:28.391Z,11.37
2023-01-31T05:55:55.888Z,14.63
2023-01-31T05:58:23.521Z,9.87
2023-01-31T06:00:50.995Z,13.77
2023-01-31T06:03:18.553Z,10.93
2023-01-31T06:05:46.060Z,11.87
2023-01-31T06:08:14.883Z,9.57
2023-01-31T06:10:42.702Z,11.37
2023-01-31T06:13:10.210Z,7.87
2023-01-31T06:15:38.603Z,8.90
2023-01-31T06:18:06.184Z,8.53
2023-01-31T06:20:33.656Z,11.73
2023-01-31T06:23:02.017Z,14.70
2023-01-31T06:25:31.089Z,9.23
2023-01-31T06:27:59.319Z,9.63
2023-01-31T06:30:27.051Z,18.10
2023-01-31T06:32:54.600Z,9.17
2023-01-31T06:35:23.197Z,8.93
2023-01-31T06:37:50.814Z,15.20
2023-01-31T06:40:18.859Z,11.63
2023-01-31T06:42:47.877Z,14.93
2023-01-31T06:45:15.417Z,14.17
2023-01-31T06:47:43.037Z,10.93
2023-01-31T06:50:12.069Z,12.27
2023-01-31T06:52:40.301Z,13.13
2023-01-31T06:55:08.399Z,11.77
2023-01-31T06:57:36.218Z,16.03
2023-01-31T07:00:05.986Z,11.70
2023-01-31T07:02:33.502Z,9.70
2023-01-31T07:05:01.102Z,10.37
2023-01-31T07:07:28.841Z,9.30
2023-01-31T07:09:56.761Z,11.93
2023-01-31T07:12:24.299Z,11.77
2023-01-31T07:14:52.061Z,13.40
2023-01-31T07:17:21.086Z,9.93
2023-01-31T07:19:48.668Z,11.60
2023-01-31T07:22:16.191Z,10.20
2023-01-31T07:24:43.689Z,13.87
2023-01-31T07:27:13.946Z,9.97
2023-01-31T07:29:41.669Z,13.87
2023-01-31T07:32:09.206Z,12.50
2023-01-31T07:34:38.026Z,16.23
2023-01-31T07:37:05.643Z,11.37
2023-01-31T07:39:33.417Z,12.93
2023-01-31T07:42:00.955Z,11.97
2023-01-31T07:44:28.457Z,7.67
2023-01-31T07:46:56.492Z,12.93
2023-01-31T07:49:24.026Z,9.17
2023-01-31T07:51:52.868Z,13.93
2023-01-31T07:54:20.366Z,13.57
2023-01-31T07:56:47.866Z,16.87
2023-01-31T07:59:17.146Z,13.90
2023-01-31T08:02:02.425Z,9.27
2023-01-31T08:04:29.986Z,10.80
2023-01-31T08:06:59.699Z,12.40
2023-01-31T08:09:27.244Z,12.40
2023-01-31T08:11:54.746Z,11.47
2023-01-31T08:14:25.325Z,9.00
2023-01-31T08:16:52.880Z,9.37
2023-01-31T08:19:20.422Z,14.30
2023-01-31T08:21:48.044Z,11.97
2023-01-31T08:24:16.901Z,11.77
2023-01-31T08:26:44.833Z,11.47
2023-01-31T08:29:12.412Z,9.33
2023-01-31T08:31:41.558Z,12.87
2023-01-31T08:34:09.500Z,8.50
2023-01-31T08:36:37.263Z,5.60
2023-01-31T08:39:05.654Z,8.97
2023-01-31T08:41:36.814Z,10.53
2023-01-31T08:44:04.977Z,10.27
2023-01-31T08:46:34.676Z,10.20
2023-01-31T08:49:03.121Z,11.03
2023-01-31T08:51:31.417Z,8.33
2023-01-31T08:53:59.366Z,9.23
2023-01-31T08:56:27.867Z,8.17
2023-01-31T08:58:58.834Z,13.63
2023-01-31T09:01:26.429Z,10.60
2023-01-31T09:03:56.914Z,14.60
2023-01-31T09:06:27.153Z,9.93
2023-01-31T09:08:56.506Z,12.27
2023-01-31T09:11:24.233Z,12.67
2023-01-31T09:13:51.865Z,11.57
2023-01-31T09:16:21.215Z,12.33
2023-01-31T09:18:49.066Z,18.83
2023-01-31T09:21:19.593Z,14.20
2023-01-31T09:23:48.773Z,16.77
2023-01-31T09:26:17.542Z,6.50
2023-01-31T09:28:45.563Z,9.67
2023-01-31T09:31:15.364Z,11.43
2023-01-31T09:33:44.684Z,12.57
2023-01-31T09:36:14.790Z,13.13
2023-01-31T09:38:42.394Z,11.83
2023-01-31T09:41:20.319Z,12.93
2023-01-31T09:43:59.871Z,15.33
2023-01-31T09:46:32.369Z,11.23
2023-01-31T09:49:06.103Z,12.97
2023-01-31T09:51:34.847Z,10.70
2023-01-31T09:54:04.799Z,14.23
2023-01-31T09:56:39.684Z,18.63
2023-01-31T09:59:18.949Z,10.47
2023-01-31T10:01:56.647Z,14.50
2023-01-31T10:04:45.810Z,11.43
2023-01-31T10:07:20.393Z,12.27
2023-01-31T10:09:53.378Z,12.60
2023-01-31T10:12:25.751Z,14.07
2023-01-31T10:14:56.970Z,13.80
2023-01-31T10:17:29.186Z,14.93
2023-01-31T10:20:02.216Z,12.03
2023-01-31T10:22:37.267Z,15.43
2023-01-31T10:25:17.383Z,14.10
2023-01-31T10:27:49.602Z,7.43
2023-01-31T10:30:20.912Z,10.40
2023-01-31T10:32:52.371Z,14.03
2023-01-31T10:35:25.850Z,13.47
2023-01-31T10:37:57.601Z,8.40
2023-01-31T10:40:33.635Z,9.50
2023-01-31T10:43:06.109Z,12.17
2023-01-31T10:45:34.154Z,14.77
2023-01-31T10:48:14.843Z,11.30
2023-01-31T10:50:55.085Z,14.07
2023-01-31T10:53:36.589Z,14.80
2023-01-31T10:56:08.059Z,9.67
2023-01-31T10:58:37.662Z,10.27
2023-01-31T11:01:08.381Z,11.17
2023-01-31T11:03:36.529Z,17.83
2023-01-31T11:06:06.474Z,13.10
2023-01-31T11:08:41.702Z,11.63
2023-01-31T11:11:11.400Z,13.50
2023-01-31T11:13:39.256Z,15.17
2023-01-31T11:16:10.805Z,11.47
2023-01-31T11:18:45.878Z,15.70
2023-01-31T11:21:21.330Z,9.20
2023-01-31T11:23:49.946Z,17.57
2023-01-31T11:26:28.104Z,10.60
2023-01-31T11:28:56.653Z,9.17
2023-01-31T11:31:31.555Z,12.70
2023-01-31T11:34:01.705Z,16.23
2023-01-31T11:36:41.653Z,14.87
2023-01-31T11:39:26.155Z,9.70
2023-01-31T11:41:53.888Z,13.47
2023-01-31T11:44:23.258Z,14.77
2023-01-31T11:46:53.954Z,10.53
2023-01-31T11:49:30.713Z,11.33
2023-01-31T11:52:02.937Z,9.90
2023-01-31T11:54:34.940Z,11.13
2023-01-31T11:57:03.174Z,10.20
2023-01-31T11:59:32.118Z,14.13
2023-01-31T12:02:01.949Z,11.90
2023-01-31T12:04:35.797Z,9.43
2023-01-31T12:07:06.994Z,8.83
2023-01-31T12:09:45.564Z,9.57
2023-01-31T12:12:29.891Z,7.07
2023-01-31T12:15:01.319Z,5.50
2023-01-31T12:17:31.847Z,8.37
2023-01-31T12:20:28.486Z,6.40
2023-01-31T12:23:08.197Z,8.80
2023-01-31T12:25:52.890Z,4.97
2023-01-31T12:28:33.960Z,5.77
2023-01-31T12:31:24.393Z,7.13
2023-01-31T12:34:25.904Z,4.20
2023-01-31T12:37:16.654Z,6.03
2023-01-31T12:40:04.827Z,4.50
2023-01-31T12:42:51.333Z,4.00
2023-01-31T12:45:33.671Z,3.10
2023-01-31T12:48:20.316Z,4.73
2023-01-31T12:50:53.393Z,5.57
2023-01-31T12:53:40.416Z,3.53
2023-01-31T12:56:23.305Z,5.43
2023-01-31T12:59:14.742Z,4.47
2023-01-31T13:01:49.910Z,4.27
2023-01-31T13:04:31.974Z,6.23
2023-01-31T13:07:02.233Z,4.70
2023-01-31T13:09:33.225Z,5.07
2023-01-31T13:12:07.968Z,3.33
2023-01-31T13:14:41.576Z,4.43
2023-01-31T13:17:13.400Z,4.07
2023-01-31T13:19:48.925Z,4.33
2023-01-31T13:22:21.491Z,4.07
2023-01-31T13:24:57.039Z,7.87
2023-01-31T13:27:32.141Z,4.80
2023-01-31T13:30:03.344Z,3.50
2023-01-31T13:32:38.983Z,7.30
2023-01-31T13:35:17.759Z,3.80
2023-01-31T13:37:49.518Z,5.67
2023-01-31T13:40:21.181Z,4.73
2023-01-31T13:42:51.174Z,3.73
2023-01-31T13:45:24.961Z,4.77
2023-01-31T13:47:59.283Z,2.73
2023-01-31T13:50:36.450Z,2.43
2023-01-31T13:53:08.269Z,3.07
2023-01-31T13:55:39.780Z,5.27
2023-01-31T13:58:16.658Z,4.17
2023-01-31T14:00:46.245Z,6.13
2023-01-31T14:03:16.509Z,3.93
2023-01-31T14:05:59.347Z,3.20
2023-01-31T14:08:36.744Z,6.13
2023-01-31T14:11:28.339Z,4.70
2023-01-31T14:14:29.291Z,4.27
2023-01-31T14:16:57.362Z,5.83
2023-01-31T14:19:55.017Z,4.50
2023-01-31T14:22:23.850Z,3.40
2023-01-31T14:24:57.524Z,3.23
2023-01-31T14:27:28.272Z,2.93
2023-01-31T14:30:01.945Z,4.27
2023-01-31T14:32:32.988Z,2.23
2023-01-31T14:35:08.536Z,3.97
2023-01-31T14:37:43.566Z,3.03
2023-01-31T14:40:23.252Z,3.33
2023-01-31T14:43:18.429Z,3.67
2023-01-31T14:46:08.770Z,2.23
2023-01-31T14:49:05.761Z,2.30
2023-01-31T14:51:46.233Z,2.63
2023-01-31T14:54:31.527Z,1.67
2023-01-31T14:57:14.444Z,2.60
2023-01-31T14:59:52.399Z,4.23
2023-01-31T15:02:42.451Z,2.07
2023-01-31T15:05:14.203Z,2.17
2023-01-31T15:08:06.241Z,2.33
2023-01-31T15:11:02.072Z,2.60
2023-01-31T15:13:39.901Z,1.23
2023-01-31T15:16:11.404Z,2.57
2023-01-31T15:18:40.741Z,2.03
2023-01-31T15:21:10.316Z,1.97
2023-01-31T15:23:41.903Z,1.10
2023-01-31T15:26:11.084Z,2.80
2023-01-31T15:28:42.817Z,1.47
2023-01-31T15:31:18.887Z,1.20
2023-01-31T15:33:52.360Z,1.80
2023-01-31T15:36:27.492Z,1.40
2023-01-31T15:38:57.751Z,2.23
2023-01-31T15:41:27.287Z,1.73
2023-01-31T15:43:57.062Z,1.93
2023-01-31T15:46:29.031Z,1.10
2023-01-31T15:48:58.560Z,1.90
2023-01-31T15:51:27.078Z,1.20
2023-01-31T15:54:06.110Z,1.10
2023-01-31T15:56:36.397Z,1.93
2023-01-31T15:59:11.204Z,1.90
2023-01-31T16:01:38.994Z,1.90
2023-01-31T16:04:08.083Z,1.40
2023-01-31T16:06:38.702Z,3.23
2023-01-31T16:09:10.665Z,1.20
2023-01-31T16:11:38.602Z,1.83
2023-01-31T16:14:07.636Z,1.63
2023-01-31T16:16:36.594Z,1.67
2023-01-31T16:19:05.359Z,4.97
2023-01-31T16:21:39.135Z,3.57
2023-01-31T16:24:15.800Z,2.33
2023-01-31T16:26:54.452Z,1.80
2023-01-31T16:29:25.834Z,3.20
2023-01-31T16:31:55.362Z,2.50
2023-01-31T16:34:27.311Z,2.60
2023-01-31T16:37:04.536Z,2.80
2023-01-31T16:39:38.965Z,2.67
2023-01-31T16:42:09.837Z,3.17
2023-01-31T16:44:42.844Z,3.80
2023-01-31T16:47:32.806Z,3.10
2023-01-31T16:50:41.935Z,2.83
2023-01-31T16:53:26.163Z,3.80
2023-01-31T16:56:18.719Z,3.37
2023-01-31T16:58:50.139Z,3.67
2023-01-31T17:01:21.060Z,4.90
2023-01-31T17:04:04.925Z,3.90
2023-01-31T17:06:33.546Z,4.97
2023-01-31T17:09:05.423Z,3.93
2023-01-31T17:11:42.525Z,4.50
2023-01-31T17:14:10.929Z,4.60
2023-01-31T17:16:38.616Z,4.07
2023-01-31T17:19:06.556Z,5.17
2023-01-31T17:21:40.106Z,4.97
2023-01-31T17:24:14.168Z,3.83
2023-01-31T17:26:41.959Z,4.33
2023-01-31T17:29:09.624Z,4.13
2023-01-31T17:31:37.476Z,3.80
2023-01-31T17:34:06.638Z,5.17
2023-01-31T17:36:34.238Z,3.70
2023-01-31T17:39:01.847Z,3.60
2023-01-31T17:41:30.792Z,3.90
2023-01-31T17:43:58.418Z,4.20
2023-01-31T17:46:25.995Z,4.30
2023-01-31T17:48:53.612Z,5.57
2023-01-31T17:51:21.234Z,5.97
2023-01-31T17:53:50.383Z,6.73
2023-01-31T17:56:18.940Z,8.30
2023-01-31T17:58:49.300Z,7.17
2023-01-31T18:01:17.048Z,6.90
2023-01-31T18:03:45.865Z,5.10
2023-01-31T18:06:13.485Z,6.27
2023-01-31T18:08:41.109Z,6.77
2023-01-31T18:11:10.372Z,5.93
2023-01-31T18:13:39.188Z,6.07
2023-01-31T18:16:11.122Z,7.57
2023-01-31T18:18:40.769Z,4.27
2023-01-31T18:21:10.606Z,4.83
2023-01-31T18:23:38.230Z,5.17
2023-01-31T18:26:06.264Z,5.03
2023-01-31T18:28:34.016Z,4.90
2023-01-31T18:31:03.619Z,7.73
2023-01-31T18:33:33.253Z,5.70
2023-01-31T18:36:01.876Z,4.27
2023-01-31T18:38:31.168Z,7.37
2023-01-31T18:41:00.131Z,5.63
2023-01-31T18:43:31.020Z,9.20
2023-01-31T18:45:58.670Z,3.83
2023-01-31T18:48:26.257Z,6.93
2023-01-31T18:50:55.292Z,7.47
2023-01-31T18:53:22.903Z,6.17
2023-01-31T18:55:50.469Z,5.10
2023-01-31T18:58:18.099Z,5.60
2023-01-31T19:00:45.816Z,6.27
2023-01-31T19:03:13.471Z,6.50
2023-01-31T19:05:41.045Z,5.67
2023-01-31T19:08:10.043Z,8.53
2023-01-31T19:10:37.648Z,8.80
2023-01-31T19:13:05.429Z,6.43
2023-01-31T19:15:33.380Z,5.87
2023-01-31T19:18:00.981Z,5.73
2023-01-31T19:20:28.570Z,6.93
2023-01-31T19:22:59.201Z,7.27
2023-01-31T19:25:28.135Z,7.97
2023-01-31T19:27:55.868Z,6.63
2023-01-31T19:30:23.455Z,8.70
2023-01-31T19:32:51.074Z,7.27
2023-01-31T19:35:18.795Z,6.93
2023-01-31T19:37:46.433Z,10.07
2023-01-31T19:40:14.532Z,7.70
2023-01-31T19:42:45.582Z,6.27
2023-01-31T19:45:21.843Z,8.57
2023-01-31T19:47:50.280Z,9.10
2023-01-31T19:50:19.211Z,7.30
2023-01-31T19:52:46.987Z,8.87
2023-01-31T19:55:14.674Z,8.83
2023-01-31T19:57:43.607Z,5.83
2023-01-31T20:00:13.186Z,8.33
2023-01-31T20:02:43.111Z,9.60
2023-01-31T20:05:13.036Z,13.70
2023-01-31T20:07:42.470Z,7.10
2023-01-31T20:10:11.836Z,9.63
2023-01-31T20:12:39.769Z,8.27
2023-01-31T20:15:09.954Z,7.57
2023-01-31T20:17:37.548Z,9.23
2023-01-31T20:20:06.192Z,15.47
2023-01-31T20:22:33.849Z,9.30
2023-01-31T20:25:01.441Z,13.10
2023-01-31T20:27:33.582Z,9.43
2023-01-31T20:30:01.169Z,13.57
2023-01-31T20:32:30.142Z,9.67
2023-01-31T20:34:58.035Z,14.07
2023-01-31T20:37:25.766Z,7.63
2023-01-31T20:39:53.352Z,12.53
2023-01-31T20:42:20.935Z,10.27
2023-01-31T20:44:48.623Z,12.97
2023-01-31T20:47:16.226Z,13.50
2023-01-31T20:49:45.170Z,11.93
2023-01-31T20:52:12.889Z,9.63
2023-01-31T20:54:40.491Z,15.13
2023-01-31T20:57:08.169Z,13.23
2023-01-31T20:59:35.789Z,13.50
2023-01-31T21:02:03.468Z,8.43
2023-01-31T21:04:31.143Z,10.77
2023-01-31T21:07:00.146Z,12.77
2023-01-31T21:09:27.806Z,13.90
2023-01-31T21:11:55.919Z,9.57
2023-01-31T21:14:23.695Z,14.50
2023-01-31T21:16:51.449Z,11.00
2023-01-31T21:19:19.351Z,8.07
2023-01-31T21:21:46.975Z,10.63
2023-01-31T21:24:16.070Z,12.77
2023-01-31T21:26:43.847Z,7.40
2023-01-31T21:29:11.677Z,13.83
2023-01-31T21:31:39.514Z,7.70
2023-01-31T21:34:07.352Z,13.77
2023-01-31T21:36:36.217Z,12.50
2023-01-31T21:39:04.282Z,10.53
2023-01-31T21:41:51.034Z,12.90
2023-01-31T21:44:18.864Z,11.67
2023-01-31T21:46:47.228Z,14.37
2023-01-31T21:49:14.938Z,11.53
2023-01-31T21:51:42.588Z,13.20
2023-01-31T21:54:10.446Z,16.40
2023-01-31T21:56:39.474Z,11.03
2023-01-31T21:59:07.145Z,10.37
2023-01-31T22:01:36.623Z,8.70
2023-01-31T22:04:04.921Z,15.07
2023-01-31T22:06:37.502Z,14.27
2023-01-31T22:09:06.506Z,14.23
2023-01-31T22:11:35.410Z,13.03
2023-01-31T22:14:06.217Z,10.37
2023-01-31T22:16:34.037Z,14.47
2023-01-31T22:19:02.792Z,15.30
2023-01-31T22:21:32.177Z,15.03
2023-01-31T22:24:02.095Z,14.40
2023-01-31T22:26:31.585Z,19.07
2023-01-31T22:29:01.971Z,15.23
2023-01-31T22:31:31.574Z,14.63
2023-01-31T22:34:00.308Z,13.97
2023-01-31T22:36:28.433Z,14.83
2023-01-31T22:38:56.397Z,15.47
2023-01-31T22:41:24.141Z,14.37
2023-01-31T22:43:53.446Z,12.80
2023-01-31T22:46:23.334Z,15.07
2023-01-31T22:48:52.756Z,11.60
2023-01-31T22:51:22.144Z,14.30
2023-01-31T22:53:50.413Z,13.33
2023-01-31T22:56:20.015Z,13.93
2023-01-31T22:58:48.360Z,14.83
2023-01-31T23:01:17.590Z,10.20
2023-01-31T23:03:46.101Z,13.43
2023-01-31T23:06:16.008Z,12.37
2023-01-31T23:08:44.509Z,15.10
2023-01-31T23:11:13.871Z,15.97
2023-01-31T23:13:42.418Z,14.90
2023-01-31T23:16:11.926Z,14.60
2023-01-31T23:18:39.742Z,7.53
2023-01-31T23:21:08.893Z,13.87
2023-01-31T23:23:38.045Z,16.63
2023-01-31T23:26:06.488Z,11.03
2023-01-31T23:28:34.285Z,14.37
2023-01-31T23:31:02.384Z,11.07
2023-01-31T23:33:30.109Z,11.03
2023-01-31T23:35:57.735Z,12.57
2023-01-31T23:38:25.363Z,14.87
2023-01-31T23:40:55.341Z,12.20
2023-01-31T23:43:24.069Z,13.30
2023-01-31T23:45:51.913Z,9.40
2023-01-31T23:48:20.237Z,10.20
2023-01-31T23:50:47.883Z,12.37
2023-01-31T23:53:15.564Z,15.33
2023-01-31T23:55:43.149Z,8.80
2023-01-31T23:58:12.521Z,10.77
